sensor_id;sensor_type;location;lat;lon;timestamp;P1;durP1;ratioP1;P2;durP2;ratioP2
4023;SDS011;2026;51.002;13.668;2023-07-13T00:00:09;3.08;;;2.65;;
4023;SDS011;2026;51.002;13.668;2023-07-13T00:05:17;6.63;;;2.80;;
4023;SDS011;2026;51.002;13.668;2023-07-13T00:10:20;5.03;;;3.23;;
4023;SDS011;2026;51.002;13.668;2023-07-13T00:15:24;3.30;;;2.87;;
4023;SDS011;2026;51.002;13.668;2023-07-13T00:20:32;4.80;;;2.85;;
4023;SDS011;2026;51.002;13.668;2023-07-13T00:25:35;3.92;;;2.55;;
4023;SDS011;2026;51.002;13.668;2023-07-13T00:30:38;3.67;;;2.90;;
4023;SDS011;2026;51.002;13.668;2023-07-13T00:35:43;3.27;;;3.00;;
4023;SDS011;2026;51.002;13.668;2023-07-13T00:40:46;3.40;;;3.10;;
4023;SDS011;2026;51.002;13.668;2023-07-13T00:51:19;3.23;;;3.00;;
4023;SDS011;2026;51.002;13.668;2023-07-13T00:56:26;3.80;;;3.47;;
4023;SDS011;2026;51.002;13.668;2023-07-13T01:01:30;3.77;;;3.47;;
4023;SDS011;2026;51.002;13.668;2023-07-13T01:06:36;4.10;;;3.73;;
4023;SDS011;2026;51.002;13.668;2023-07-13T01:11:41;4.43;;;3.40;;
4023;SDS011;2026;51.002;13.668;2023-07-13T01:16:46;5.23;;;3.40;;
4023;SDS011;2026;51.002;13.668;2023-07-13T01:21:52;4.67;;;3.77;;
4023;SDS011;2026;51.002;13.668;2023-07-13T01:26:55;3.80;;;3.50;;
4023;SDS011;2026;51.002;13.668;2023-07-13T01:31:58;4.10;;;3.43;;
4023;SDS011;2026;51.002;13.668;2023-07-13T01:37:04;3.77;;;3.47;;
4023;SDS011;2026;51.002;13.668;2023-07-13T01:42:07;5.80;;;4.00;;
4023;SDS011;2026;51.002;13.668;2023-07-13T01:47:10;4.07;;;3.67;;
4023;SDS011;2026;51.002;13.668;2023-07-13T01:52:15;4.17;;;3.77;;
4023;SDS011;2026;51.002;13.668;2023-07-13T01:57:18;4.70;;;3.87;;
4023;SDS011;2026;51.002;13.668;2023-07-13T02:02:21;4.00;;;3.70;;
4023;SDS011;2026;51.002;13.668;2023-07-13T02:07:25;3.57;;;3.27;;
4023;SDS011;2026;51.002;13.668;2023-07-13T02:12:28;8.30;;;4.10;;
4023;SDS011;2026;51.002;13.668;2023-07-13T02:17:31;4.10;;;3.63;;
4023;SDS011;2026;51.002;13.668;2023-07-13T02:22:35;4.17;;;3.53;;
4023;SDS011;2026;51.002;13.668;2023-07-13T02:27:39;4.10;;;3.27;;
4023;SDS011;2026;51.002;13.668;2023-07-13T02:32:43;3.83;;;3.40;;
4023;SDS011;2026;51.002;13.668;2023-07-13T02:37:47;4.87;;;4.40;;
4023;SDS011;2026;51.002;13.668;2023-07-13T02:42:50;5.63;;;4.20;;
4023;SDS011;2026;51.002;13.668;2023-07-13T02:47:53;4.67;;;4.27;;
4023;SDS011;2026;51.002;13.668;2023-07-13T02:52:58;5.20;;;4.63;;
4023;SDS011;2026;51.002;13.668;2023-07-13T02:58:01;4.30;;;3.90;;
4023;SDS011;2026;51.002;13.668;2023-07-13T03:03:04;4.73;;;4.33;;
4023;SDS011;2026;51.002;13.668;2023-07-13T03:08:08;5.47;;;4.97;;
4023;SDS011;2026;51.002;13.668;2023-07-13T03:13:12;5.40;;;4.83;;
4023;SDS011;2026;51.002;13.668;2023-07-13T03:18:15;9.77;;;5.07;;
4023;SDS011;2026;51.002;13.668;2023-07-13T03:23:20;6.70;;;5.10;;
4023;SDS011;2026;51.002;13.668;2023-07-13T03:28:24;5.33;;;4.73;;
4023;SDS011;2026;51.002;13.668;2023-07-13T03:33:27;7.20;;;5.33;;
4023;SDS011;2026;51.002;13.668;2023-07-13T03:38:32;7.33;;;5.67;;
4023;SDS011;2026;51.002;13.668;2023-07-13T03:43:37;6.00;;;5.40;;
4023;SDS011;2026;51.002;13.668;2023-07-13T03:48:40;5.70;;;4.83;;
4023;SDS011;2026;51.002;13.668;2023-07-13T03:53:47;5.83;;;5.33;;
4023;SDS011;2026;51.002;13.668;2023-07-13T03:58:53;5.03;;;4.63;;
4023;SDS011;2026;51.002;13.668;2023-07-13T04:03:56;6.80;;;4.90;;
4023;SDS011;2026;51.002;13.668;2023-07-13T04:09:06;6.17;;;5.57;;
4023;SDS011;2026;51.002;13.668;2023-07-13T04:14:10;7.10;;;5.70;;
4023;SDS011;2026;51.002;13.668;2023-07-13T04:19:13;5.33;;;4.80;;
4023;SDS011;2026;51.002;13.668;2023-07-13T04:24:17;6.70;;;5.03;;
4023;SDS011;2026;51.002;13.668;2023-07-13T04:29:20;6.40;;;5.30;;
4023;SDS011;2026;51.002;13.668;2023-07-13T04:34:23;9.30;;;5.20;;
4023;SDS011;2026;51.002;13.668;2023-07-13T04:39:28;6.00;;;5.40;;
4023;SDS011;2026;51.002;13.668;2023-07-13T04:44:31;6.40;;;5.30;;
4023;SDS011;2026;51.002;13.668;2023-07-13T04:49:34;7.73;;;6.10;;
4023;SDS011;2026;51.002;13.668;2023-07-13T04:54:38;7.30;;;6.43;;
4023;SDS011;2026;51.002;13.668;2023-07-13T04:59:41;7.97;;;6.43;;
4023;SDS011;2026;51.002;13.668;2023-07-13T05:04:45;9.37;;;7.37;;
4023;SDS011;2026;51.002;13.668;2023-07-13T05:09:50;9.60;;;7.87;;
4023;SDS011;2026;51.002;13.668;2023-07-13T05:14:54;8.90;;;7.50;;
4023;SDS011;2026;51.002;13.668;2023-07-13T05:19:57;10.70;;;9.60;;
4023;SDS011;2026;51.002;13.668;2023-07-13T05:25:01;9.77;;;8.43;;
4023;SDS011;2026;51.002;13.668;2023-07-13T05:30:05;8.43;;;7.73;;
4023;SDS011;2026;51.002;13.668;2023-07-13T05:35:12;8.77;;;7.87;;
4023;SDS011;2026;51.002;13.668;2023-07-13T05:40:16;7.67;;;6.40;;
4023;SDS011;2026;51.002;13.668;2023-07-13T05:45:19;11.13;;;5.00;;
4023;SDS011;2026;51.002;13.668;2023-07-13T05:50:22;5.20;;;4.53;;
4023;SDS011;2026;51.002;13.668;2023-07-13T05:55:26;6.90;;;4.77;;
4023;SDS011;2026;51.002;13.668;2023-07-13T06:00:29;6.40;;;3.80;;
4023;SDS011;2026;51.002;13.668;2023-07-13T06:05:32;4.63;;;4.23;;
4023;SDS011;2026;51.002;13.668;2023-07-13T06:10:37;4.67;;;3.80;;
4023;SDS011;2026;51.002;13.668;2023-07-13T06:15:40;4.43;;;3.65;;
4023;SDS011;2026;51.002;13.668;2023-07-13T06:20:43;5.20;;;4.47;;
4023;SDS011;2026;51.002;13.668;2023-07-13T06:25:47;6.30;;;4.22;;
4023;SDS011;2026;51.002;13.668;2023-07-13T06:30:50;5.60;;;3.70;;
4023;SDS011;2026;51.002;13.668;2023-07-13T06:35:53;5.55;;;3.90;;
4023;SDS011;2026;51.002;13.668;2023-07-13T06:40:58;4.40;;;3.72;;
4023;SDS011;2026;51.002;13.668;2023-07-13T06:46:01;4.50;;;3.88;;
4023;SDS011;2026;51.002;13.668;2023-07-13T06:51:04;4.93;;;3.97;;
4023;SDS011;2026;51.002;13.668;2023-07-13T06:56:08;5.30;;;3.28;;
4023;SDS011;2026;51.002;13.668;2023-07-13T07:01:11;4.50;;;3.45;;
4023;SDS011;2026;51.002;13.668;2023-07-13T07:06:16;8.25;;;3.10;;
4023;SDS011;2026;51.002;13.668;2023-07-13T07:11:22;3.50;;;3.17;;
4023;SDS011;2026;51.002;13.668;2023-07-13T07:16:28;5.30;;;3.20;;
4023;SDS011;2026;51.002;13.668;2023-07-13T07:21:31;3.63;;;3.15;;
4023;SDS011;2026;51.002;13.668;2023-07-13T07:26:35;3.97;;;2.88;;
4023;SDS011;2026;51.002;13.668;2023-07-13T07:31:58;4.13;;;3.47;;
4023;SDS011;2026;51.002;13.668;2023-07-13T07:37:09;3.65;;;3.20;;
4023;SDS011;2026;51.002;13.668;2023-07-13T07:42:18;2.95;;;2.67;;
4023;SDS011;2026;51.002;13.668;2023-07-13T07:47:21;5.32;;;2.83;;
4023;SDS011;2026;51.002;13.668;2023-07-13T07:52:25;4.03;;;3.05;;
4023;SDS011;2026;51.002;13.668;2023-07-13T07:57:30;3.78;;;2.80;;
4023;SDS011;2026;51.002;13.668;2023-07-13T08:02:52;3.65;;;2.50;;
4023;SDS011;2026;51.002;13.668;2023-07-13T08:07:58;5.07;;;3.10;;
4023;SDS011;2026;51.002;13.668;2023-07-13T08:13:03;5.50;;;2.80;;
4023;SDS011;2026;51.002;13.668;2023-07-13T08:18:08;3.10;;;2.80;;
4023;SDS011;2026;51.002;13.668;2023-07-13T08:23:11;3.35;;;2.28;;
4023;SDS011;2026;51.002;13.668;2023-07-13T08:28:16;5.30;;;2.67;;
4023;SDS011;2026;51.002;13.668;2023-07-13T08:33:20;3.75;;;2.97;;
4023;SDS011;2026;51.002;13.668;2023-07-13T08:38:25;4.85;;;2.78;;
4023;SDS011;2026;51.002;13.668;2023-07-13T08:43:30;3.20;;;2.53;;
4023;SDS011;2026;51.002;13.668;2023-07-13T08:48:38;3.95;;;2.40;;
4023;SDS011;2026;51.002;13.668;2023-07-13T08:53:46;4.57;;;2.35;;
4023;SDS011;2026;51.002;13.668;2023-07-13T08:58:53;4.93;;;2.97;;
4023;SDS011;2026;51.002;13.668;2023-07-13T09:04:07;4.07;;;2.75;;
4023;SDS011;2026;51.002;13.668;2023-07-13T09:09:16;5.45;;;3.17;;
4023;SDS011;2026;51.002;13.668;2023-07-13T09:14:37;3.00;;;2.70;;
4023;SDS011;2026;51.002;13.668;2023-07-13T09:20:46;3.47;;;2.58;;
4023;SDS011;2026;51.002;13.668;2023-07-13T09:25:53;5.30;;;2.60;;
4023;SDS011;2026;51.002;13.668;2023-07-13T09:31:02;3.63;;;2.60;;
4023;SDS011;2026;51.002;13.668;2023-07-13T09:41:33;3.35;;;2.50;;
4023;SDS011;2026;51.002;13.668;2023-07-13T09:46:43;4.10;;;2.90;;
4023;SDS011;2026;51.002;13.668;2023-07-13T09:51:50;3.33;;;2.83;;
4023;SDS011;2026;51.002;13.668;2023-07-13T09:57:02;6.22;;;3.35;;
4023;SDS011;2026;51.002;13.668;2023-07-13T10:07:27;5.22;;;2.67;;
4023;SDS011;2026;51.002;13.668;2023-07-13T10:12:35;4.32;;;2.90;;
4023;SDS011;2026;51.002;13.668;2023-07-13T10:17:39;3.53;;;2.50;;
4023;SDS011;2026;51.002;13.668;2023-07-13T10:22:44;5.32;;;2.80;;
4023;SDS011;2026;51.002;13.668;2023-07-13T10:27:55;4.28;;;3.25;;
4023;SDS011;2026;51.002;13.668;2023-07-13T10:33:03;5.10;;;2.85;;
4023;SDS011;2026;51.002;13.668;2023-07-13T10:38:15;4.20;;;2.47;;
4023;SDS011;2026;51.002;13.668;2023-07-13T10:43:23;3.42;;;2.63;;
4023;SDS011;2026;51.002;13.668;2023-07-13T10:48:30;3.50;;;2.25;;
4023;SDS011;2026;51.002;13.668;2023-07-13T10:53:38;6.32;;;2.50;;
4023;SDS011;2026;51.002;13.668;2023-07-13T10:58:42;3.15;;;2.55;;
4023;SDS011;2026;51.002;13.668;2023-07-13T11:03:47;4.65;;;2.30;;
4023;SDS011;2026;51.002;13.668;2023-07-13T11:08:54;4.03;;;2.40;;
4023;SDS011;2026;51.002;13.668;2023-07-13T11:13:59;2.75;;;2.00;;
4023;SDS011;2026;51.002;13.668;2023-07-13T11:19:24;2.58;;;2.38;;
4023;SDS011;2026;51.002;13.668;2023-07-13T11:24:52;3.85;;;2.40;;
4023;SDS011;2026;51.002;13.668;2023-07-13T11:30:24;4.82;;;2.53;;
4023;SDS011;2026;51.002;13.668;2023-07-13T11:35:35;4.65;;;2.58;;
4023;SDS011;2026;51.002;13.668;2023-07-13T11:40:42;3.95;;;3.00;;
4023;SDS011;2026;51.002;13.668;2023-07-13T11:45:56;4.35;;;2.80;;
4023;SDS011;2026;51.002;13.668;2023-07-13T11:51:00;3.35;;;2.55;;
4023;SDS011;2026;51.002;13.668;2023-07-13T11:56:08;6.20;;;2.58;;
4023;SDS011;2026;51.002;13.668;2023-07-13T12:01:15;4.40;;;2.80;;
4023;SDS011;2026;51.002;13.668;2023-07-13T12:06:26;4.55;;;2.83;;
4023;SDS011;2026;51.002;13.668;2023-07-13T12:11:34;3.53;;;2.70;;
4023;SDS011;2026;51.002;13.668;2023-07-13T12:16:42;3.00;;;2.75;;
4023;SDS011;2026;51.002;13.668;2023-07-13T12:21:46;5.38;;;2.95;;
4023;SDS011;2026;51.002;13.668;2023-07-13T12:26:52;4.32;;;2.80;;
4023;SDS011;2026;51.002;13.668;2023-07-13T12:31:56;4.07;;;3.33;;
4023;SDS011;2026;51.002;13.668;2023-07-13T12:37:00;5.72;;;3.17;;
4023;SDS011;2026;51.002;13.668;2023-07-13T12:42:18;3.72;;;2.70;;
4023;SDS011;2026;51.002;13.668;2023-07-13T12:47:27;3.03;;;2.55;;
4023;SDS011;2026;51.002;13.668;2023-07-13T12:52:32;3.97;;;2.88;;
4023;SDS011;2026;51.002;13.668;2023-07-13T12:57:43;4.43;;;2.53;;
4023;SDS011;2026;51.002;13.668;2023-07-13T13:02:55;3.97;;;2.78;;
4023;SDS011;2026;51.002;13.668;2023-07-13T13:08:16;7.45;;;2.72;;
4023;SDS011;2026;51.002;13.668;2023-07-13T13:13:20;5.00;;;2.55;;
4023;SDS011;2026;51.002;13.668;2023-07-13T13:18:24;4.82;;;2.75;;
4023;SDS011;2026;51.002;13.668;2023-07-13T13:23:27;3.63;;;2.50;;
4023;SDS011;2026;51.002;13.668;2023-07-13T13:28:32;4.15;;;2.40;;
4023;SDS011;2026;51.002;13.668;2023-07-13T13:33:35;3.97;;;2.25;;
4023;SDS011;2026;51.002;13.668;2023-07-13T13:38:38;4.90;;;2.22;;
4023;SDS011;2026;51.002;13.668;2023-07-13T13:43:42;2.83;;;2.40;;
4023;SDS011;2026;51.002;13.668;2023-07-13T13:48:47;3.80;;;2.50;;
4023;SDS011;2026;51.002;13.668;2023-07-13T13:53:51;7.93;;;2.83;;
4023;SDS011;2026;51.002;13.668;2023-07-13T13:58:56;3.72;;;2.08;;
4023;SDS011;2026;51.002;13.668;2023-07-13T14:03:59;2.60;;;2.40;;
4023;SDS011;2026;51.002;13.668;2023-07-13T14:09:02;5.18;;;2.70;;
4023;SDS011;2026;51.002;13.668;2023-07-13T14:14:08;5.95;;;2.70;;
4023;SDS011;2026;51.002;13.668;2023-07-13T14:19:14;4.57;;;2.50;;
4023;SDS011;2026;51.002;13.668;2023-07-13T14:24:17;7.57;;;2.70;;
4023;SDS011;2026;51.002;13.668;2023-07-13T14:29:21;5.07;;;2.55;;
4023;SDS011;2026;51.002;13.668;2023-07-13T14:34:25;4.05;;;2.17;;
4023;SDS011;2026;51.002;13.668;2023-07-13T14:39:28;4.13;;;2.65;;
4023;SDS011;2026;51.002;13.668;2023-07-13T14:44:32;4.20;;;2.67;;
4023;SDS011;2026;51.002;13.668;2023-07-13T14:49:36;3.38;;;2.38;;
4023;SDS011;2026;51.002;13.668;2023-07-13T14:54:41;3.10;;;2.10;;
4023;SDS011;2026;51.002;13.668;2023-07-13T14:59:47;6.15;;;2.67;;
4023;SDS011;2026;51.002;13.668;2023-07-13T15:04:50;3.33;;;2.50;;
4023;SDS011;2026;51.002;13.668;2023-07-13T15:09:53;3.95;;;2.03;;
4023;SDS011;2026;51.002;13.668;2023-07-13T15:14:57;5.05;;;2.45;;
4023;SDS011;2026;51.002;13.668;2023-07-13T15:20:00;6.25;;;2.10;;
4023;SDS011;2026;51.002;13.668;2023-07-13T15:25:16;2.72;;;2.15;;
4023;SDS011;2026;51.002;13.668;2023-07-13T15:30:22;3.17;;;1.88;;
4023;SDS011;2026;51.002;13.668;2023-07-13T15:35:28;9.90;;;2.00;;
4023;SDS011;2026;51.002;13.668;2023-07-13T15:40:30;1.92;;;1.50;;
4023;SDS011;2026;51.002;13.668;2023-07-13T15:45:36;2.95;;;1.90;;
4023;SDS011;2026;51.002;13.668;2023-07-13T15:50:41;2.35;;;1.63;;
4023;SDS011;2026;51.002;13.668;2023-07-13T15:55:46;2.10;;;1.70;;
4023;SDS011;2026;51.002;13.668;2023-07-13T16:00:50;5.85;;;1.77;;
4023;SDS011;2026;51.002;13.668;2023-07-13T16:05:55;1.85;;;1.35;;
4023;SDS011;2026;51.002;13.668;2023-07-13T16:10:58;1.67;;;1.58;;
4023;SDS011;2026;51.002;13.668;2023-07-13T16:16:07;2.00;;;1.60;;
4023;SDS011;2026;51.002;13.668;2023-07-13T16:21:12;1.80;;;1.45;;
4023;SDS011;2026;51.002;13.668;2023-07-13T16:26:25;1.95;;;1.30;;
4023;SDS011;2026;51.002;13.668;2023-07-13T16:31:35;2.80;;;1.35;;
4023;SDS011;2026;51.002;13.668;2023-07-13T16:36:39;1.65;;;1.55;;
4023;SDS011;2026;51.002;13.668;2023-07-13T16:41:42;3.38;;;1.90;;
4023;SDS011;2026;51.002;13.668;2023-07-13T16:46:47;4.45;;;1.90;;
4023;SDS011;2026;51.002;13.668;2023-07-13T16:51:52;2.47;;;2.10;;
4023;SDS011;2026;51.002;13.668;2023-07-13T16:56:55;4.28;;;2.85;;
4023;SDS011;2026;51.002;13.668;2023-07-13T17:02:00;6.57;;;2.70;;
4023;SDS011;2026;51.002;13.668;2023-07-13T17:07:07;3.05;;;2.85;;
4023;SDS011;2026;51.002;13.668;2023-07-13T17:12:12;6.45;;;3.38;;
4023;SDS011;2026;51.002;13.668;2023-07-13T17:17:17;5.50;;;2.83;;
4023;SDS011;2026;51.002;13.668;2023-07-13T17:22:23;4.07;;;3.00;;
4023;SDS011;2026;51.002;13.668;2023-07-13T17:27:29;5.28;;;3.38;;
4023;SDS011;2026;51.002;13.668;2023-07-13T17:32:35;4.72;;;2.70;;
4023;SDS011;2026;51.002;13.668;2023-07-13T17:37:38;3.25;;;2.67;;
4023;SDS011;2026;51.002;13.668;2023-07-13T17:42:41;3.83;;;2.60;;
4023;SDS011;2026;51.002;13.668;2023-07-13T17:47:46;3.92;;;2.83;;
4023;SDS011;2026;51.002;13.668;2023-07-13T17:52:51;6.97;;;3.15;;
4023;SDS011;2026;51.002;13.668;2023-07-13T17:57:54;7.50;;;2.47;;
4023;SDS011;2026;51.002;13.668;2023-07-13T18:02:58;3.85;;;2.33;;
4023;SDS011;2026;51.002;13.668;2023-07-13T18:08:05;5.68;;;2.45;;
4023;SDS011;2026;51.002;13.668;2023-07-13T18:13:09;3.17;;;2.10;;
4023;SDS011;2026;51.002;13.668;2023-07-13T18:18:13;5.32;;;2.33;;
4023;SDS011;2026;51.002;13.668;2023-07-13T18:23:19;3.88;;;1.95;;
4023;SDS011;2026;51.002;13.668;2023-07-13T18:28:23;5.22;;;2.10;;
4023;SDS011;2026;51.002;13.668;2023-07-13T18:33:29;4.22;;;1.95;;
4023;SDS011;2026;51.002;13.668;2023-07-13T18:38:35;1.85;;;1.65;;
4023;SDS011;2026;51.002;13.668;2023-07-13T18:43:38;4.43;;;2.53;;
4023;SDS011;2026;51.002;13.668;2023-07-13T18:48:43;2.58;;;2.15;;
4023;SDS011;2026;51.002;13.668;2023-07-13T18:53:48;4.22;;;1.90;;
4023;SDS011;2026;51.002;13.668;2023-07-13T18:58:51;3.22;;;1.80;;
4023;SDS011;2026;51.002;13.668;2023-07-13T19:03:55;3.40;;;1.65;;
4023;SDS011;2026;51.002;13.668;2023-07-13T19:08:59;7.32;;;1.60;;
4023;SDS011;2026;51.002;13.668;2023-07-13T19:14:02;2.80;;;1.88;;
4023;SDS011;2026;51.002;13.668;2023-07-13T19:19:11;2.47;;;1.70;;
4023;SDS011;2026;51.002;13.668;2023-07-13T19:24:17;3.65;;;1.88;;
4023;SDS011;2026;51.002;13.668;2023-07-13T19:29:24;3.28;;;2.20;;
4023;SDS011;2026;51.002;13.668;2023-07-13T19:34:31;3.33;;;1.88;;
4023;SDS011;2026;51.002;13.668;2023-07-13T19:39:36;2.55;;;1.73;;
4023;SDS011;2026;51.002;13.668;2023-07-13T19:44:41;3.35;;;2.00;;
4023;SDS011;2026;51.002;13.668;2023-07-13T19:49:45;3.63;;;1.90;;
4023;SDS011;2026;51.002;13.668;2023-07-13T19:54:49;3.55;;;2.00;;
4023;SDS011;2026;51.002;13.668;2023-07-13T19:59:53;3.47;;;2.00;;
4023;SDS011;2026;51.002;13.668;2023-07-13T20:05:00;2.17;;;1.98;;
4023;SDS011;2026;51.002;13.668;2023-07-13T20:10:15;2.95;;;2.30;;
4023;SDS011;2026;51.002;13.668;2023-07-13T20:15:20;4.63;;;2.45;;
4023;SDS011;2026;51.002;13.668;2023-07-13T20:20:30;3.67;;;2.20;;
4023;SDS011;2026;51.002;13.668;2023-07-13T20:25:34;3.72;;;2.25;;
4023;SDS011;2026;51.002;13.668;2023-07-13T20:30:39;5.05;;;2.53;;
4023;SDS011;2026;51.002;13.668;2023-07-13T20:35:47;4.83;;;2.67;;
4023;SDS011;2026;51.002;13.668;2023-07-13T20:40:51;4.97;;;2.63;;
4023;SDS011;2026;51.002;13.668;2023-07-13T20:45:55;5.45;;;2.28;;
4023;SDS011;2026;51.002;13.668;2023-07-13T20:51:01;3.03;;;2.65;;
4023;SDS011;2026;51.002;13.668;2023-07-13T20:56:08;3.10;;;2.50;;
4023;SDS011;2026;51.002;13.668;2023-07-13T21:01:15;3.80;;;2.10;;
4023;SDS011;2026;51.002;13.668;2023-07-13T21:06:22;5.10;;;3.00;;
4023;SDS011;2026;51.002;13.668;2023-07-13T21:11:25;2.90;;;2.10;;
4023;SDS011;2026;51.002;13.668;2023-07-13T21:16:28;3.63;;;2.50;;
4023;SDS011;2026;51.002;13.668;2023-07-13T21:21:33;5.13;;;3.00;;
4023;SDS011;2026;51.002;13.668;2023-07-13T21:26:36;4.60;;;3.10;;
4023;SDS011;2026;51.002;13.668;2023-07-13T21:31:39;2.90;;;2.57;;
4023;SDS011;2026;51.002;13.668;2023-07-13T21:36:44;3.27;;;2.70;;
4023;SDS011;2026;51.002;13.668;2023-07-13T21:41:48;3.33;;;2.50;;
4023;SDS011;2026;51.002;13.668;2023-07-13T21:46:51;3.57;;;2.40;;
4023;SDS011;2026;51.002;13.668;2023-07-13T21:51:55;6.10;;;2.33;;
4023;SDS011;2026;51.002;13.668;2023-07-13T21:56:59;3.40;;;1.93;;
4023;SDS011;2026;51.002;13.668;2023-07-13T22:02:02;4.77;;;2.13;;
4023;SDS011;2026;51.002;13.668;2023-07-13T22:07:08;2.20;;;2.00;;
4023;SDS011;2026;51.002;13.668;2023-07-13T22:12:12;3.40;;;2.40;;
4023;SDS011;2026;51.002;13.668;2023-07-13T22:17:15;2.77;;;2.40;;
4023;SDS011;2026;51.002;13.668;2023-07-13T22:22:22;3.47;;;2.40;;
4023;SDS011;2026;51.002;13.668;2023-07-13T22:27:25;2.70;;;2.23;;
4023;SDS011;2026;51.002;13.668;2023-07-13T22:32:30;4.10;;;2.47;;
4023;SDS011;2026;51.002;13.668;2023-07-13T22:37:35;3.33;;;2.40;;
4023;SDS011;2026;51.002;13.668;2023-07-13T22:42:38;3.00;;;2.20;;
4023;SDS011;2026;51.002;13.668;2023-07-13T22:47:41;3.83;;;2.30;;
4023;SDS011;2026;51.002;13.668;2023-07-13T22:52:45;4.13;;;2.70;;
4023;SDS011;2026;51.002;13.668;2023-07-13T22:57:48;2.90;;;2.20;;
4023;SDS011;2026;51.002;13.668;2023-07-13T23:02:51;4.07;;;2.50;;
4023;SDS011;2026;51.002;13.668;2023-07-13T23:07:56;2.97;;;2.50;;
4023;SDS011;2026;51.002;13.668;2023-07-13T23:13:00;3.23;;;2.90;;
4023;SDS011;2026;51.002;13.668;2023-07-13T23:18:04;4.40;;;2.77;;
4023;SDS011;2026;51.002;13.668;2023-07-13T23:23:13;3.70;;;2.60;;
4023;SDS011;2026;51.002;13.668;2023-07-13T23:28:17;5.93;;;2.50;;
4023;SDS011;2026;51.002;13.668;2023-07-13T23:33:24;6.27;;;2.80;;
4023;SDS011;2026;51.002;13.668;2023-07-13T23:38:30;6.00;;;3.03;;
4023;SDS011;2026;51.002;13.668;2023-07-13T23:43:33;2.70;;;2.50;;
4023;SDS011;2026;51.002;13.668;2023-07-13T23:48:36;3.47;;;2.80;;
4023;SDS011;2026;51.002;13.668;2023-07-13T23:53:40;3.50;;;2.87;;
4023;SDS011;2026;51.002;13.668;2023-07-13T23:58:43;5.40;;;3.40;;
